createdAt,value
2019-05-13T00:01:15.086Z,29.40
2019-05-13T00:03:46.913Z,29.40
2019-05-13T00:06:18.671Z,29.40
2019-05-13T00:08:50.655Z,29.50
2019-05-13T00:11:24.276Z,29.50
2019-05-13T00:13:55.642Z,29.60
2019-05-13T00:16:27.178Z,29.60
2019-05-13T00:18:59.022Z,29.60
2019-05-13T00:21:30.490Z,29.60
2019-05-13T00:24:03.936Z,29.70
2019-05-13T00:26:35.141Z,29.70
2019-05-13T00:29:07.010Z,29.70
2019-05-13T00:31:38.761Z,29.80
2019-05-13T00:34:10.607Z,29.90
2019-05-13T00:36:44.357Z,30.00
2019-05-13T00:39:15.449Z,30.20
2019-05-13T00:41:46.938Z,30.40
2019-05-13T00:44:18.985Z,30.60
2019-05-13T00:46:50.654Z,30.70
2019-05-13T00:49:23.866Z,31.00
2019-05-13T00:51:55.490Z,31.10
2019-05-13T00:54:27.250Z,31.20
2019-05-13T00:56:59.178Z,31.20
2019-05-13T00:59:30.677Z,31.20
2019-05-13T01:02:03.589Z,31.20
2019-05-13T01:04:35.359Z,31.20
2019-05-13T01:07:11.064Z,31.10
2019-05-13T01:09:40.110Z,31.00
2019-05-13T01:12:13.394Z,30.90
2019-05-13T01:14:44.557Z,30.90
2019-05-13T01:17:16.114Z,30.90
2019-05-13T01:19:47.429Z,30.90
2019-05-13T01:22:19.001Z,31.00
2019-05-13T01:24:50.857Z,31.00
2019-05-13T01:27:23.923Z,31.00
2019-05-13T01:29:57.906Z,30.90
2019-05-13T01:32:29.323Z,30.90
2019-05-13T01:35:00.966Z,31.10
2019-05-13T01:37:42.113Z,31.20
2019-05-13T01:40:06.370Z,31.20
2019-05-13T01:42:38.124Z,31.20
2019-05-13T01:45:09.653Z,31.20
2019-05-13T01:47:43.731Z,31.20
2019-05-13T01:50:14.363Z,31.30
2019-05-13T01:52:45.995Z,31.50
2019-05-13T01:55:17.429Z,31.70
2019-05-13T01:57:49.481Z,31.90
2019-05-13T02:00:20.948Z,32.00
2019-05-13T02:02:54.334Z,32.20
2019-05-13T02:05:25.423Z,32.20
2019-05-13T02:08:00.416Z,32.10
2019-05-13T02:10:47.211Z,32.00
2019-05-13T02:13:18.373Z,32.00
2019-05-13T02:15:50.189Z,32.00
2019-05-13T02:18:24.106Z,31.90
2019-05-13T02:20:56.095Z,31.90
2019-05-13T02:23:27.581Z,31.90
2019-05-13T02:25:59.325Z,31.90
2019-05-13T02:28:33.217Z,31.90
2019-05-13T02:31:04.339Z,32.00
2019-05-13T02:33:36.246Z,32.20
2019-05-13T02:36:07.845Z,32.20
2019-05-13T02:38:42.477Z,32.20
2019-05-13T02:41:13.471Z,32.20
2019-05-13T02:43:45.521Z,32.10
2019-05-13T02:46:17.394Z,32.10
2019-05-13T02:48:52.494Z,32.20
2019-05-13T02:51:22.977Z,32.20
2019-05-13T02:53:54.866Z,32.20
2019-05-13T02:56:26.719Z,32.10
2019-05-13T02:58:58.468Z,32.00
2019-05-13T03:01:32.884Z,32.00
2019-05-13T03:04:03.310Z,32.00
2019-05-13T03:06:35.413Z,32.00
2019-05-13T03:09:07.984Z,31.90
2019-05-13T03:11:42.290Z,31.90
2019-05-13T03:14:12.966Z,31.90
2019-05-13T03:16:46.217Z,32.00
2019-05-13T03:19:17.859Z,32.10
2019-05-13T03:21:52.062Z,32.30
2019-05-13T03:24:22.989Z,32.40
2019-05-13T03:26:55.105Z,32.60
2019-05-13T03:29:26.651Z,32.70
2019-05-13T03:31:58.872Z,32.70
2019-05-13T03:34:36.160Z,32.80
2019-05-13T03:37:06.358Z,33.00
2019-05-13T03:39:36.810Z,33.00
2019-05-13T03:42:08.456Z,33.00
2019-05-13T03:44:42.594Z,33.00
2019-05-13T03:47:12.957Z,33.00
2019-05-13T03:49:46.159Z,32.90
2019-05-13T03:52:17.751Z,32.90
2019-05-13T03:54:51.907Z,33.00
2019-05-13T03:57:23.187Z,33.20
2019-05-13T03:59:54.739Z,33.20
2019-05-13T04:02:26.436Z,33.30
2019-05-13T04:04:59.442Z,33.30
2019-05-13T04:07:32.665Z,33.20
2019-05-13T04:10:03.754Z,33.30
2019-05-13T04:12:35.287Z,33.40
2019-05-13T04:15:07.551Z,33.40
2019-05-13T04:17:42.544Z,33.60
2019-05-13T04:20:12.730Z,33.70
2019-05-13T04:22:44.598Z,33.80
2019-05-13T04:25:16.100Z,33.80
2019-05-13T04:27:47.913Z,34.00
2019-05-13T04:30:22.327Z,34.00
2019-05-13T04:32:53.669Z,34.10
2019-05-13T04:35:25.376Z,34.10
2019-05-13T04:37:57.102Z,34.20
2019-05-13T04:40:28.930Z,34.20
2019-05-13T04:43:02.862Z,34.20
2019-05-13T04:45:33.542Z,34.20
2019-05-13T04:48:05.896Z,34.00
2019-05-13T04:50:37.762Z,33.90
2019-05-13T04:53:09.410Z,33.90
2019-05-13T04:55:42.761Z,33.80
2019-05-13T04:58:13.496Z,33.80
2019-05-13T05:01:01.641Z,33.80
2019-05-13T05:03:33.194Z,33.80
2019-05-13T05:06:02.981Z,33.80
2019-05-13T05:08:47.614Z,33.70
2019-05-13T05:11:52.910Z,33.70
2019-05-13T05:14:28.319Z,33.60
2019-05-13T05:17:35.178Z,33.60
2019-05-13T05:20:15.112Z,33.60
2019-05-13T05:22:51.147Z,33.60
2019-05-13T05:25:29.234Z,33.70
2019-05-13T05:28:11.342Z,33.70
2019-05-13T05:31:03.658Z,33.70
2019-05-13T05:33:46.393Z,33.80
2019-05-13T05:36:41.353Z,33.80
2019-05-13T05:39:25.874Z,33.80
2019-05-13T05:41:58.547Z,33.90
2019-05-13T05:44:32.524Z,34.00
2019-05-13T05:47:04.707Z,34.10
2019-05-13T05:49:36.373Z,34.30
2019-05-13T05:52:08.492Z,34.30
2019-05-13T05:54:42.214Z,34.40
2019-05-13T05:57:13.745Z,34.40
2019-05-13T05:59:45.457Z,34.50
2019-05-13T06:02:17.157Z,34.60
2019-05-13T06:04:51.423Z,34.70
2019-05-13T06:07:22.256Z,34.90
2019-05-13T06:09:53.870Z,34.80
2019-05-13T06:12:25.301Z,34.90
2019-05-13T06:14:57.053Z,34.70
2019-05-13T06:17:28.611Z,34.70
2019-05-13T06:20:03.168Z,34.70
2019-05-13T06:22:33.323Z,34.60
2019-05-13T06:25:05.330Z,34.70
2019-05-13T06:27:37.109Z,34.80
2019-05-13T06:30:09.347Z,34.90
2019-05-13T06:32:41.870Z,34.90
2019-05-13T06:35:13.758Z,34.90
2019-05-13T06:37:45.875Z,34.90
2019-05-13T06:40:17.316Z,34.90
2019-05-13T06:42:48.983Z,35.00
2019-05-13T06:45:21.651Z,34.90
2019-05-13T06:47:53.497Z,34.80
2019-05-13T06:50:25.247Z,34.70
2019-05-13T06:52:56.928Z,34.60
2019-05-13T06:55:28.490Z,34.50
2019-05-13T06:58:01.997Z,34.30
2019-05-13T07:00:34.551Z,34.10
2019-05-13T07:03:05.376Z,34.10
2019-05-13T07:05:36.989Z,34.10
2019-05-13T07:08:08.457Z,34.10
2019-05-13T07:10:41.486Z,34.10
2019-05-13T07:13:13.198Z,34.10
2019-05-13T07:15:44.958Z,34.00
2019-05-13T07:18:16.705Z,34.00
2019-05-13T07:20:48.726Z,34.00
2019-05-13T07:23:22.418Z,34.10
2019-05-13T07:25:53.353Z,34.10
2019-05-13T07:28:24.613Z,34.20
2019-05-13T07:30:56.061Z,34.20
2019-05-13T07:33:27.893Z,34.20
2019-05-13T07:36:03.188Z,34.10
2019-05-13T07:38:35.422Z,34.20
2019-05-13T07:41:06.980Z,34.10
2019-05-13T07:43:38.756Z,34.10
2019-05-13T07:46:12.607Z,34.10
2019-05-13T07:48:43.524Z,34.10
2019-05-13T07:51:16.028Z,34.20
2019-05-13T07:53:47.405Z,34.20
2019-05-13T07:56:21.559Z,34.20
2019-05-13T07:58:52.483Z,34.10
2019-05-13T08:01:24.118Z,34.10
2019-05-13T08:03:55.597Z,34.10
2019-05-13T08:06:27.569Z,34.00
2019-05-13T08:09:01.496Z,34.00
2019-05-13T08:11:36.908Z,33.90
2019-05-13T08:14:05.274Z,33.80
2019-05-13T08:16:37.105Z,33.80
2019-05-13T08:19:08.654Z,33.70
2019-05-13T08:21:41.793Z,33.70
2019-05-13T08:24:13.058Z,33.80
2019-05-13T08:26:49.785Z,33.80
2019-05-13T08:29:21.780Z,33.90
2019-05-13T08:31:53.169Z,34.00
2019-05-13T08:36:58.035Z,34.10
2019-05-13T08:39:35.643Z,34.10
2019-05-13T08:42:12.890Z,34.10
2019-05-13T08:44:35.136Z,34.10
2019-05-13T08:47:06.836Z,34.10
2019-05-13T08:49:38.235Z,34.10
2019-05-13T08:52:12.063Z,34.20
2019-05-13T08:54:46.046Z,34.20
2019-05-13T08:57:17.473Z,34.30
2019-05-13T08:59:51.598Z,34.40
2019-05-13T09:02:23.445Z,34.40
2019-05-13T09:04:55.612Z,34.40
2019-05-13T09:07:27.417Z,34.50
2019-05-13T09:10:01.834Z,34.50
2019-05-13T09:12:36.296Z,34.50
2019-05-13T09:15:07.110Z,34.40
2019-05-13T09:17:38.644Z,34.30
2019-05-13T09:20:11.484Z,34.20
2019-05-13T09:22:43.448Z,34.10
2019-05-13T09:25:15.026Z,34.00
2019-05-13T09:27:46.487Z,33.90
2019-05-13T09:30:18.321Z,33.90
2019-05-13T09:32:51.382Z,33.80
2019-05-13T09:35:22.728Z,33.80
2019-05-13T09:37:54.748Z,33.80
2019-05-13T09:40:26.634Z,33.80
2019-05-13T09:42:58.052Z,33.70
2019-05-13T09:45:29.472Z,33.70
2019-05-13T09:48:01.752Z,33.70
2019-05-13T09:50:36.183Z,33.60
2019-05-13T09:53:06.528Z,33.50
2019-05-13T09:55:38.150Z,33.50
2019-05-13T09:58:11.877Z,33.50
2019-05-13T10:00:44.148Z,33.40
2019-05-13T10:03:16.731Z,33.30
2019-05-13T10:05:48.393Z,33.30
2019-05-13T10:08:21.937Z,33.30
2019-05-13T10:10:52.969Z,33.20
2019-05-13T10:13:24.909Z,33.10
2019-05-13T10:15:56.457Z,33.10
2019-05-13T10:18:28.085Z,33.00
2019-05-13T10:21:02.998Z,32.90
2019-05-13T10:23:34.661Z,32.80
2019-05-13T10:26:11.690Z,32.80
2019-05-13T10:28:42.702Z,32.60
2019-05-13T10:31:14.796Z,32.30
2019-05-13T10:33:46.177Z,32.10
2019-05-13T10:36:17.918Z,32.00
2019-05-13T10:38:52.572Z,31.80
2019-05-13T10:41:24.274Z,31.80
2019-05-13T10:43:56.033Z,31.70
2019-05-13T10:46:27.657Z,31.70
2019-05-13T10:49:01.709Z,31.60
2019-05-13T10:51:33.449Z,31.60
2019-05-13T10:54:08.481Z,31.60
2019-05-13T10:56:42.472Z,31.50
2019-05-13T10:59:13.332Z,31.50
2019-05-13T11:01:45.132Z,31.50
2019-05-13T11:04:16.969Z,31.50
2019-05-13T11:06:48.701Z,31.50
2019-05-13T11:09:21.881Z,31.40
2019-05-13T11:11:53.396Z,31.40
2019-05-13T11:14:25.002Z,31.40
2019-05-13T11:16:56.982Z,31.40
2019-05-13T11:19:33.287Z,31.50
2019-05-13T11:22:02.741Z,31.50
2019-05-13T11:24:34.611Z,31.50
2019-05-13T11:27:06.465Z,31.50
2019-05-13T11:29:38.109Z,31.50
2019-05-13T11:32:13.192Z,31.50
2019-05-13T11:34:44.202Z,31.50
2019-05-13T11:37:16.080Z,31.50
2019-05-13T11:39:48.031Z,31.40
2019-05-13T11:42:22.087Z,31.30
2019-05-13T11:44:53.128Z,31.20
2019-05-13T11:47:25.272Z,31.20
2019-05-13T11:49:56.974Z,31.20
2019-05-13T11:52:31.022Z,31.20
2019-05-13T11:55:02.547Z,31.20
2019-05-13T11:57:34.643Z,31.10
2019-05-13T12:00:07.490Z,31.10
2019-05-13T12:02:42.277Z,31.00
2019-05-13T12:05:12.120Z,30.90
2019-05-13T12:07:43.958Z,30.80
2019-05-13T12:10:15.790Z,30.80
2019-05-13T12:12:47.544Z,30.70
2019-05-13T12:15:33.477Z,30.60
2019-05-13T12:17:52.973Z,30.50
2019-05-13T12:20:24.943Z,30.40
2019-05-13T12:22:56.642Z,30.30
2019-05-13T12:25:28.510Z,30.30
2019-05-13T12:28:03.131Z,30.30
2019-05-13T12:30:33.835Z,30.30
2019-05-13T12:33:05.939Z,30.30
2019-05-13T12:35:37.626Z,30.30
2019-05-13T12:38:12.957Z,30.20
2019-05-13T12:40:43.101Z,30.10
2019-05-13T12:43:14.849Z,30.00
2019-05-13T12:45:46.837Z,29.90
2019-05-13T12:48:18.661Z,29.90
2019-05-13T12:50:53.913Z,29.90
2019-05-13T12:53:23.923Z,29.90
2019-05-13T12:55:57.299Z,30.00
2019-05-13T12:58:28.805Z,30.00
2019-05-13T13:01:01.467Z,30.00
2019-05-13T13:03:33.525Z,29.90
2019-05-13T13:06:25.087Z,29.90
2019-05-13T13:11:11.516Z,29.90
2019-05-13T13:13:57.900Z,30.00
2019-05-13T13:16:16.515Z,30.00
2019-05-13T13:18:48.193Z,29.90
2019-05-13T13:21:23.420Z,29.80
2019-05-13T13:23:53.138Z,29.80
2019-05-13T13:26:25.034Z,29.70
2019-05-13T13:28:57.004Z,29.60
2019-05-13T13:31:28.852Z,29.50
2019-05-13T13:34:11.833Z,29.50
2019-05-13T13:36:35.037Z,29.40
2019-05-13T13:39:07.710Z,29.40
2019-05-13T13:41:43.650Z,29.40
2019-05-13T13:44:15.009Z,29.30
2019-05-13T13:46:49.331Z,29.30
2019-05-13T13:49:23.014Z,29.40
2019-05-13T13:51:53.456Z,29.40
2019-05-13T13:54:25.164Z,29.40
2019-05-13T13:56:57.184Z,29.40
2019-05-13T13:59:28.741Z,29.50
2019-05-13T14:02:05.139Z,29.50
2019-05-13T14:04:33.440Z,29.40
2019-05-13T14:07:13.594Z,29.90
2019-05-13T14:07:22.242Z,29.30
2019-05-13T14:09:38.450Z,29.20
2019-05-13T14:12:11.365Z,29.20
2019-05-13T14:14:42.960Z,29.10
2019-05-13T14:17:14.684Z,29.10
2019-05-13T14:19:46.649Z,29.10
2019-05-13T14:22:18.388Z,29.20
2019-05-13T14:24:51.850Z,29.20
2019-05-13T14:27:23.465Z,29.30
2019-05-13T14:29:55.099Z,29.40
2019-05-13T14:32:26.585Z,29.50
2019-05-13T14:34:58.027Z,29.60
2019-05-13T14:37:31.823Z,29.60
2019-05-13T14:40:03.289Z,29.70
2019-05-13T14:42:35.481Z,29.60
2019-05-13T14:45:07.838Z,29.60
2019-05-13T14:47:39.622Z,29.60
2019-05-13T14:50:12.159Z,29.50
2019-05-13T14:52:44.071Z,29.50
2019-05-13T14:55:15.731Z,29.50
2019-05-13T14:57:47.575Z,29.40
2019-05-13T15:00:21.863Z,29.30
2019-05-13T15:02:52.610Z,29.20
2019-05-13T15:05:23.983Z,29.20
2019-05-13T15:07:55.501Z,29.10
2019-05-13T15:10:27.416Z,29.10
2019-05-13T15:12:59.227Z,29.00
2019-05-13T15:15:31.708Z,28.90
2019-05-13T15:18:03.332Z,28.90
2019-05-13T15:20:35.045Z,28.80
2019-05-13T15:23:06.859Z,28.80
2019-05-13T15:25:41.871Z,28.70
2019-05-13T15:28:13.100Z,28.70
2019-05-13T15:30:44.909Z,28.60
2019-05-13T15:33:16.650Z,28.60
2019-05-13T15:35:48.703Z,28.60
2019-05-13T15:38:20.274Z,28.50
2019-05-13T15:40:52.293Z,28.50
2019-05-13T15:43:24.701Z,28.40
2019-05-13T15:45:56.537Z,28.30
2019-05-13T15:48:28.701Z,28.30
2019-05-13T15:51:02.188Z,28.20
2019-05-13T15:53:33.497Z,28.20
2019-05-13T15:56:05.217Z,28.10
2019-05-13T15:58:39.455Z,28.10
2019-05-13T16:01:12.325Z,28.10
2019-05-13T16:03:42.992Z,28.10
2019-05-13T16:06:14.848Z,28.00
2019-05-13T16:08:46.710Z,28.00
2019-05-13T16:11:18.365Z,27.90
2019-05-13T16:13:51.797Z,27.90
2019-05-13T16:16:23.118Z,27.90
2019-05-13T16:18:54.617Z,27.80
2019-05-13T16:21:26.253Z,27.80
2019-05-13T16:23:57.966Z,27.90
2019-05-13T16:26:31.836Z,27.90
2019-05-13T16:29:02.862Z,27.90
2019-05-13T16:31:34.695Z,27.80
2019-05-13T16:34:06.503Z,27.80
2019-05-13T16:36:38.094Z,27.80
2019-05-13T16:39:12.116Z,27.70
2019-05-13T16:41:42.851Z,27.70
2019-05-13T16:44:16.897Z,27.70
2019-05-13T16:46:48.850Z,27.60
2019-05-13T16:49:21.925Z,27.60
2019-05-13T16:51:53.425Z,27.60
2019-05-13T16:54:24.851Z,27.60
2019-05-13T16:56:56.701Z,27.60
2019-05-13T16:59:28.566Z,27.60
2019-05-13T17:02:01.892Z,27.50
2019-05-13T17:04:33.319Z,27.60
2019-05-13T17:07:05.195Z,27.50
2019-05-13T17:09:36.677Z,27.50
2019-05-13T17:12:08.461Z,27.50
2019-05-13T17:14:41.606Z,27.50
2019-05-13T17:17:13.273Z,27.50
2019-05-13T17:19:44.919Z,27.40
2019-05-13T17:22:16.672Z,27.40
2019-05-13T17:24:48.159Z,27.40
2019-05-13T17:27:21.350Z,27.40
2019-05-13T17:29:52.870Z,27.40
2019-05-13T17:32:24.933Z,27.40
2019-05-13T17:34:56.641Z,27.40
2019-05-13T17:37:28.294Z,27.40
2019-05-13T17:40:01.437Z,27.40
2019-05-13T17:42:33.241Z,27.40
2019-05-13T17:45:05.327Z,27.40
2019-05-13T17:47:37.005Z,27.40
2019-05-13T17:50:11.508Z,27.40
2019-05-13T17:52:42.337Z,27.40
2019-05-13T17:55:14.193Z,27.40
2019-05-13T17:57:45.929Z,27.40
2019-05-13T18:00:17.314Z,27.30
2019-05-13T18:02:51.255Z,27.30
2019-05-13T18:05:22.593Z,27.20
2019-05-13T18:07:54.637Z,27.10
2019-05-13T18:10:26.209Z,27.00
2019-05-13T18:12:58.064Z,26.90
2019-05-13T18:15:31.342Z,27.00
2019-05-13T18:18:02.801Z,27.00
2019-05-13T18:20:34.543Z,27.00
2019-05-13T18:23:06.211Z,27.00
2019-05-13T18:25:37.657Z,27.00
2019-05-13T18:28:23.160Z,27.10
2019-05-13T18:30:42.365Z,27.10
2019-05-13T18:33:14.221Z,27.10
2019-05-13T18:35:46.157Z,27.00
2019-05-13T18:38:17.741Z,27.00
2019-05-13T18:40:52.389Z,27.00
2019-05-13T18:43:22.860Z,26.90
2019-05-13T18:45:54.982Z,26.90
2019-05-13T18:48:26.739Z,26.90
2019-05-13T18:50:58.386Z,26.90
2019-05-13T18:53:31.872Z,27.00
2019-05-13T18:56:03.021Z,27.00
2019-05-13T18:58:34.902Z,27.00
2019-05-13T19:01:06.607Z,26.90
2019-05-13T19:03:38.190Z,26.90
2019-05-13T19:06:11.632Z,26.80
2019-05-13T19:08:42.821Z,26.70
2019-05-13T19:11:14.435Z,26.60
2019-05-13T19:13:46.176Z,26.60
2019-05-13T19:16:17.835Z,26.60
2019-05-13T19:18:49.450Z,26.60
2019-05-13T19:21:21.873Z,26.70
2019-05-13T19:23:53.797Z,26.70
2019-05-13T19:26:25.501Z,26.80
2019-05-13T19:28:56.942Z,26.80
2019-05-13T19:31:28.262Z,26.90
2019-05-13T19:34:01.480Z,26.90
2019-05-13T19:36:33.058Z,27.00
2019-05-13T19:39:06.086Z,27.00
2019-05-13T19:41:37.512Z,27.00
2019-05-13T19:44:09.276Z,27.00
2019-05-13T19:46:43.174Z,27.00
2019-05-13T19:49:28.700Z,27.00
2019-05-13T19:51:48.314Z,27.00
2019-05-13T19:54:22.146Z,27.10
2019-05-13T19:56:53.067Z,27.10
2019-05-13T19:59:24.933Z,27.10
2019-05-13T20:01:56.601Z,27.00
2019-05-13T20:04:28.380Z,27.00
2019-05-13T20:07:00.289Z,27.10
2019-05-13T20:09:32.312Z,27.00
2019-05-13T20:12:03.943Z,27.00
2019-05-13T20:14:35.856Z,26.90
2019-05-13T20:17:07.565Z,26.80
2019-05-13T20:19:47.693Z,26.80
2019-05-13T20:22:12.141Z,26.70
2019-05-13T20:24:43.971Z,26.70
2019-05-13T20:27:15.499Z,26.70
2019-05-13T20:29:46.920Z,26.70
2019-05-13T20:32:18.656Z,26.80
2019-05-13T20:34:51.448Z,26.80
2019-05-13T20:37:23.299Z,26.80
2019-05-13T20:39:54.981Z,26.90
2019-05-13T20:42:26.814Z,26.90
2019-05-13T20:44:58.458Z,26.90
2019-05-13T20:47:30.445Z,26.90
2019-05-13T20:50:02.545Z,26.90
2019-05-13T20:52:34.325Z,26.90
2019-05-13T20:55:06.727Z,26.90
2019-05-13T20:57:38.411Z,26.90
2019-05-13T21:00:10.169Z,26.90
2019-05-13T21:02:41.911Z,26.90
2019-05-13T21:05:13.820Z,26.90
2019-05-13T21:07:45.427Z,26.80
2019-05-13T21:10:16.937Z,26.90
2019-05-13T21:12:51.168Z,26.80
2019-05-13T21:15:21.865Z,26.90
2019-05-13T21:17:53.581Z,26.80
2019-05-13T21:20:26.026Z,26.80
2019-05-13T21:22:57.909Z,26.80
2019-05-13T21:25:31.112Z,26.70
2019-05-13T21:28:02.856Z,26.70
2019-05-13T21:30:34.661Z,26.60
2019-05-13T21:33:06.461Z,26.60
2019-05-13T21:35:38.114Z,26.70
2019-05-13T21:38:11.265Z,26.70
2019-05-13T21:40:43.136Z,26.70
2019-05-13T21:43:15.113Z,26.70
2019-05-13T21:45:46.975Z,26.80
2019-05-13T21:48:18.968Z,26.80
2019-05-13T21:50:51.582Z,26.80
2019-05-13T21:53:24.496Z,26.80
2019-05-13T21:55:56.084Z,26.80
2019-05-13T21:58:27.834Z,26.80
2019-05-13T22:01:01.614Z,26.80
2019-05-13T22:03:33.510Z,26.80
2019-05-13T22:06:05.284Z,26.80
2019-05-13T22:08:36.964Z,26.80
2019-05-13T22:11:08.447Z,26.80
2019-05-13T22:13:41.973Z,26.80
2019-05-13T22:16:13.049Z,26.80
2019-05-13T22:18:45.043Z,26.70
2019-05-13T22:21:16.799Z,26.80
2019-05-13T22:23:48.641Z,26.80
2019-05-13T22:26:22.061Z,26.80
2019-05-13T22:28:53.509Z,26.70
2019-05-13T22:31:25.133Z,26.70
2019-05-13T22:33:57.101Z,26.70
2019-05-13T22:36:28.861Z,26.70
2019-05-13T22:39:02.061Z,26.70
2019-05-13T22:41:33.668Z,26.70
2019-05-13T22:44:05.401Z,26.70
2019-05-13T22:46:37.221Z,26.70
2019-05-13T22:49:11.842Z,26.70
2019-05-13T22:51:43.374Z,26.60
2019-05-13T22:54:15.407Z,26.60
2019-05-13T22:56:46.942Z,26.60
2019-05-13T22:59:18.793Z,26.60
2019-05-13T23:01:52.366Z,26.70
2019-05-13T23:04:23.575Z,26.70
2019-05-13T23:06:55.104Z,26.70
2019-05-13T23:09:26.863Z,26.70
2019-05-13T23:11:58.629Z,26.70
2019-05-13T23:14:30.333Z,26.70
2019-05-13T23:17:02.420Z,26.80
2019-05-13T23:19:34.159Z,26.80
2019-05-13T23:22:05.982Z,26.80
2019-05-13T23:24:37.947Z,26.90
2019-05-13T23:27:11.021Z,26.90
2019-05-13T23:29:42.732Z,26.90
2019-05-13T23:32:14.302Z,26.90
2019-05-13T23:34:46.137Z,26.90
2019-05-13T23:37:17.977Z,26.90
2019-05-13T23:39:51.843Z,27.00
2019-05-13T23:42:22.834Z,27.00
2019-05-13T23:44:54.820Z,27.10
2019-05-13T23:47:26.486Z,27.10
2019-05-13T23:49:58.761Z,27.20
2019-05-13T23:52:31.204Z,27.20
2019-05-13T23:55:05.804Z,27.30
2019-05-13T23:57:35.665Z,27.40
